createdAt,value
2023-05-19T00:02:33.799Z,3.37
2023-05-19T00:05:19.496Z,4.43
2023-05-19T00:08:05.510Z,4.57
2023-05-19T00:10:51.090Z,5.90
2023-05-19T00:13:36.946Z,4.27
2023-05-19T00:16:24.099Z,3.97
2023-05-19T00:19:10.353Z,3.83
2023-05-19T00:21:56.232Z,4.43
2023-05-19T00:24:41.623Z,3.60
2023-05-19T00:27:26.862Z,5.70
2023-05-19T00:30:12.535Z,4.13
2023-05-19T00:32:58.121Z,3.83
2023-05-19T00:35:43.411Z,6.60
2023-05-19T00:38:29.294Z,4.50
2023-05-19T00:41:14.909Z,5.47
2023-05-19T00:44:00.344Z,4.17
2023-05-19T00:46:45.638Z,3.30
2023-05-19T00:49:30.997Z,5.40
2023-05-19T00:52:16.347Z,4.33
2023-05-19T00:55:01.761Z,3.83
2023-05-19T00:57:47.082Z,3.83
2023-05-19T01:00:32.744Z,3.43
2023-05-19T01:03:20.645Z,3.67
2023-05-19T01:06:07.391Z,3.37
2023-05-19T01:08:54.741Z,3.73
2023-05-19T01:11:40.385Z,6.10
2023-05-19T01:14:25.609Z,3.27
2023-05-19T01:17:24.334Z,4.83
2023-05-19T01:20:31.295Z,3.30
2023-05-19T01:23:23.881Z,5.50
2023-05-19T01:26:12.903Z,3.70
2023-05-19T01:29:38.397Z,3.57
2023-05-19T01:32:25.479Z,3.67
2023-05-19T01:35:15.079Z,3.53
2023-05-19T01:38:01.466Z,4.07
2023-05-19T01:40:49.540Z,5.47
2023-05-19T01:43:36.022Z,3.77
2023-05-19T01:46:22.208Z,4.20
2023-05-19T01:49:08.046Z,3.70
2023-05-19T01:51:53.542Z,3.97
2023-05-19T01:54:40.999Z,4.77
2023-05-19T01:57:56.489Z,3.77
2023-05-19T02:00:56.796Z,4.00
2023-05-19T02:04:03.537Z,4.33
2023-05-19T02:07:01.422Z,3.67
2023-05-19T02:10:21.714Z,3.00
2023-05-19T02:13:09.016Z,4.70
2023-05-19T02:15:58.945Z,3.30
2023-05-19T02:18:46.265Z,3.97
2023-05-19T02:21:31.672Z,3.40
2023-05-19T02:24:17.518Z,3.63
2023-05-19T02:27:02.812Z,2.90
2023-05-19T02:29:48.203Z,3.60
2023-05-19T02:32:33.461Z,3.53
2023-05-19T02:35:19.171Z,3.20
2023-05-19T02:38:04.416Z,3.63
2023-05-19T02:40:52.763Z,4.13
2023-05-19T02:43:38.485Z,3.60
2023-05-19T02:46:24.031Z,3.63
2023-05-19T02:49:10.018Z,4.23
2023-05-19T02:51:55.413Z,3.40
2023-05-19T02:54:40.870Z,6.20
2023-05-19T02:57:26.952Z,5.27
2023-05-19T03:00:12.948Z,5.30
2023-05-19T03:03:02.752Z,7.33
2023-05-19T03:05:48.596Z,6.13
2023-05-19T03:08:34.564Z,7.43
2023-05-19T03:11:19.863Z,8.17
2023-05-19T03:14:05.596Z,5.23
2023-05-19T03:16:51.456Z,7.80
2023-05-19T03:19:36.889Z,8.07
2023-05-19T03:22:22.432Z,8.03
2023-05-19T03:25:08.164Z,6.93
2023-05-19T03:27:53.973Z,8.13
2023-05-19T03:30:39.876Z,11.40
2023-05-19T03:33:32.764Z,7.03
2023-05-19T03:36:18.174Z,7.70
2023-05-19T03:39:03.738Z,8.97
2023-05-19T03:41:49.833Z,7.30
2023-05-19T03:44:35.100Z,6.13
2023-05-19T03:47:20.498Z,8.00
2023-05-19T03:50:06.510Z,7.20
2023-05-19T03:53:07.359Z,8.17
2023-05-19T03:56:00.691Z,7.00
2023-05-19T03:58:47.130Z,5.80
2023-05-19T04:01:33.808Z,7.37
2023-05-19T04:04:19.683Z,8.77
2023-05-19T04:07:05.138Z,5.77
2023-05-19T04:09:51.064Z,6.97
2023-05-19T04:12:36.748Z,8.10
2023-05-19T04:15:22.130Z,9.73
2023-05-19T04:18:07.450Z,7.60
2023-05-19T04:20:53.532Z,7.97
2023-05-19T04:23:38.841Z,8.63
2023-05-19T04:26:25.033Z,5.80
2023-05-19T04:29:10.742Z,4.80
2023-05-19T04:32:00.997Z,5.43
2023-05-19T04:34:47.223Z,7.00
2023-05-19T04:37:40.688Z,6.37
2023-05-19T04:40:27.736Z,7.00
2023-05-19T04:43:12.950Z,5.47
2023-05-19T04:45:58.814Z,4.83
2023-05-19T04:48:45.212Z,5.77
2023-05-19T04:51:31.551Z,4.93
2023-05-19T04:54:19.547Z,6.57
2023-05-19T04:57:07.570Z,7.80
2023-05-19T05:00:00.038Z,5.53
2023-05-19T05:02:51.843Z,4.73
2023-05-19T05:05:39.439Z,4.53
2023-05-19T05:08:25.409Z,4.97
2023-05-19T05:11:12.904Z,7.43
2023-05-19T05:14:00.892Z,4.37
2023-05-19T05:16:50.993Z,7.07
2023-05-19T05:19:41.436Z,7.57
2023-05-19T05:22:27.480Z,7.53
2023-05-19T05:25:13.814Z,7.77
2023-05-19T05:28:00.045Z,5.47
2023-05-19T05:30:46.760Z,6.67
2023-05-19T05:33:34.444Z,5.93
2023-05-19T05:36:21.416Z,7.80
2023-05-19T05:39:07.429Z,5.47
2023-05-19T05:41:53.743Z,5.83
2023-05-19T05:44:39.983Z,7.90
2023-05-19T05:47:26.894Z,4.30
2023-05-19T05:50:13.744Z,4.77
2023-05-19T05:53:01.983Z,6.83
2023-05-19T05:55:50.245Z,6.57
2023-05-19T05:58:38.205Z,4.43
2023-05-19T06:01:24.199Z,4.47
2023-05-19T06:04:10.479Z,3.60
2023-05-19T06:07:01.163Z,4.50
2023-05-19T06:09:50.514Z,6.53
2023-05-19T06:12:40.055Z,5.27
2023-05-19T06:15:25.920Z,5.73
2023-05-19T06:18:19.186Z,8.43
2023-05-19T06:21:10.251Z,6.07
2023-05-19T06:23:55.950Z,8.77
2023-05-19T06:26:41.483Z,8.80
2023-05-19T06:29:26.828Z,4.83
2023-05-19T06:32:14.445Z,6.13
2023-05-19T06:35:00.212Z,7.17
2023-05-19T06:37:45.977Z,5.57
2023-05-19T06:40:31.682Z,4.93
2023-05-19T06:43:17.884Z,6.40
2023-05-19T06:46:14.557Z,5.63
2023-05-19T06:49:02.271Z,9.10
2023-05-19T06:51:52.037Z,5.57
2023-05-19T06:54:38.942Z,3.70
2023-05-19T06:57:24.353Z,6.60
2023-05-19T07:00:13.423Z,9.20
2023-05-19T07:03:02.801Z,7.88
2023-05-19T07:05:48.664Z,4.70
2023-05-19T07:08:35.244Z,7.20
2023-05-19T07:11:22.183Z,6.73
2023-05-19T07:14:08.112Z,5.27
2023-05-19T07:16:54.426Z,5.30
2023-05-19T07:19:41.121Z,6.43
2023-05-19T07:22:27.674Z,4.50
2023-05-19T07:25:16.752Z,5.40
2023-05-19T07:28:05.875Z,9.00
2023-05-19T07:30:52.012Z,5.20
2023-05-19T07:33:37.579Z,7.37
2023-05-19T07:36:23.313Z,9.33
2023-05-19T07:39:09.011Z,7.70
2023-05-19T07:41:55.942Z,11.23
2023-05-19T07:44:41.749Z,5.00
2023-05-19T07:47:27.562Z,8.23
2023-05-19T07:50:14.506Z,6.87
2023-05-19T07:52:59.671Z,4.93
2023-05-19T07:55:44.807Z,8.10
2023-05-19T07:58:30.116Z,5.50
2023-05-19T08:01:15.422Z,7.10
2023-05-19T08:04:00.856Z,6.67
2023-05-19T08:06:46.680Z,9.30
2023-05-19T08:09:32.026Z,5.40
2023-05-19T08:12:17.446Z,4.57
2023-05-19T08:15:03.321Z,6.47
2023-05-19T08:17:48.781Z,5.03
2023-05-19T08:20:34.831Z,5.73
2023-05-19T08:23:22.546Z,4.40
2023-05-19T08:26:08.136Z,4.43
2023-05-19T08:28:53.978Z,4.30
2023-05-19T08:31:39.229Z,7.40
2023-05-19T08:34:24.618Z,4.23
2023-05-19T08:37:11.031Z,8.37
2023-05-19T08:39:57.294Z,6.03
2023-05-19T08:42:43.152Z,5.10
2023-05-19T08:45:29.150Z,6.17
2023-05-19T08:48:16.800Z,5.70
2023-05-19T08:51:20.853Z,6.10
2023-05-19T08:54:15.850Z,8.30
2023-05-19T08:57:02.404Z,5.40
2023-05-19T08:59:49.081Z,7.73
2023-05-19T09:02:36.766Z,5.93
2023-05-19T09:05:23.263Z,8.70
2023-05-19T09:08:08.664Z,13.00
2023-05-19T09:10:53.747Z,5.77
2023-05-19T09:13:39.442Z,9.73
2023-05-19T09:16:27.657Z,8.23
2023-05-19T09:19:15.867Z,5.07
2023-05-19T09:22:04.929Z,11.33
2023-05-19T09:24:50.707Z,6.77
2023-05-19T09:27:36.150Z,9.93
2023-05-19T09:30:21.852Z,6.50
2023-05-19T09:33:09.942Z,4.73
2023-05-19T09:35:56.814Z,5.23
2023-05-19T09:38:42.742Z,3.30
2023-05-19T09:41:28.930Z,9.27
2023-05-19T09:44:29.460Z,4.00
2023-05-19T09:47:16.469Z,5.37
2023-05-19T09:50:01.789Z,5.37
2023-05-19T09:52:48.233Z,6.07
2023-05-19T09:55:34.873Z,3.63
2023-05-19T09:58:21.750Z,4.70
2023-05-19T10:01:08.584Z,3.47
2023-05-19T10:03:54.323Z,4.13
2023-05-19T10:06:40.546Z,5.00
2023-05-19T10:09:27.953Z,4.87
2023-05-19T10:12:13.737Z,4.80
2023-05-19T10:14:59.530Z,6.13
2023-05-19T10:17:45.748Z,4.17
2023-05-19T10:20:32.801Z,5.70
2023-05-19T10:23:18.839Z,4.70
2023-05-19T10:26:06.659Z,4.30
2023-05-19T10:28:52.233Z,4.20
2023-05-19T10:31:40.255Z,4.73
2023-05-19T10:34:44.032Z,4.27
2023-05-19T10:37:45.208Z,8.98
2023-05-19T10:40:36.879Z,6.57
2023-05-19T10:43:43.955Z,5.33
2023-05-19T10:46:30.401Z,5.33
2023-05-19T10:49:22.716Z,4.57
2023-05-19T10:52:26.149Z,3.97
2023-05-19T10:55:17.529Z,6.13
2023-05-19T10:58:02.921Z,4.77
2023-05-19T11:01:01.034Z,3.80
2023-05-19T11:03:59.451Z,5.77
2023-05-19T11:06:52.632Z,6.50
2023-05-19T11:09:41.096Z,3.47
2023-05-19T11:12:26.541Z,4.37
2023-05-19T11:15:14.006Z,4.53
2023-05-19T11:18:01.925Z,3.80
2023-05-19T11:20:58.602Z,4.20
2023-05-19T11:23:44.421Z,5.43
2023-05-19T11:26:46.382Z,3.83
2023-05-19T11:29:33.528Z,4.63
2023-05-19T11:32:21.768Z,3.47
2023-05-19T11:35:10.134Z,3.83
2023-05-19T11:37:56.448Z,6.80
2023-05-19T11:40:42.197Z,9.17
2023-05-19T11:43:27.718Z,3.53
2023-05-19T11:46:13.992Z,4.33
2023-05-19T11:48:59.549Z,7.53
2023-05-19T11:51:45.874Z,9.93
2023-05-19T11:54:33.695Z,7.03
2023-05-19T11:57:20.483Z,4.47
2023-05-19T12:00:08.077Z,8.30
2023-05-19T12:02:54.004Z,7.80
2023-05-19T12:05:48.742Z,10.00
2023-05-19T12:08:37.164Z,8.40
2023-05-19T12:11:23.932Z,5.43
2023-05-19T12:14:09.860Z,5.37
2023-05-19T12:16:55.455Z,5.90
2023-05-19T12:19:43.516Z,5.43
2023-05-19T12:22:30.000Z,5.07
2023-05-19T12:25:17.182Z,6.53
2023-05-19T12:28:05.764Z,4.97
2023-05-19T12:30:52.584Z,5.57
2023-05-19T12:33:38.222Z,6.33
2023-05-19T12:36:25.217Z,3.40
2023-05-19T12:39:11.811Z,3.70
2023-05-19T12:42:10.173Z,6.13
2023-05-19T12:44:57.309Z,5.23
2023-05-19T12:47:48.771Z,6.80
2023-05-19T12:50:34.890Z,4.77
2023-05-19T12:53:20.533Z,6.33
2023-05-19T12:56:14.099Z,3.67
2023-05-19T13:01:46.446Z,10.60
2023-05-19T13:04:31.657Z,5.40
2023-05-19T13:07:16.950Z,7.07
2023-05-19T13:10:02.486Z,4.53
2023-05-19T13:12:47.716Z,6.30
2023-05-19T13:15:35.726Z,3.80
2023-05-19T13:18:21.309Z,2.73
2023-05-19T13:21:06.952Z,2.97
2023-05-19T13:23:53.398Z,3.13
2023-05-19T13:26:39.735Z,6.97
2023-05-19T13:29:25.638Z,5.20
2023-05-19T13:32:10.871Z,5.60
2023-05-19T13:34:56.390Z,5.10
2023-05-19T13:37:42.780Z,5.37
2023-05-19T13:40:28.720Z,4.13
2023-05-19T13:43:14.245Z,6.23
2023-05-19T13:45:59.784Z,9.37
2023-05-19T13:48:45.424Z,5.27
2023-05-19T13:51:31.348Z,8.43
2023-05-19T13:54:19.617Z,8.87
2023-05-19T13:57:06.280Z,7.17
2023-05-19T14:00:01.677Z,4.67
2023-05-19T14:02:57.448Z,5.80
2023-05-19T14:05:42.720Z,7.50
2023-05-19T14:08:28.184Z,3.90
2023-05-19T14:11:21.696Z,4.43
2023-05-19T14:14:08.833Z,5.87
2023-05-19T14:16:56.445Z,3.30
2023-05-19T14:19:42.112Z,3.63
2023-05-19T14:22:27.789Z,3.97
2023-05-19T14:25:13.059Z,4.30
2023-05-19T14:27:58.426Z,5.63
2023-05-19T14:30:43.893Z,4.40
2023-05-19T14:33:34.742Z,3.00
2023-05-19T14:36:21.152Z,3.93
2023-05-19T14:39:06.618Z,3.30
2023-05-19T14:41:52.983Z,5.20
2023-05-19T14:44:38.594Z,4.47
2023-05-19T14:47:26.167Z,3.40
2023-05-19T14:50:12.933Z,3.50
2023-05-19T14:52:58.390Z,7.70
2023-05-19T14:55:44.307Z,5.03
2023-05-19T14:58:29.733Z,5.17
2023-05-19T15:01:15.117Z,9.47
2023-05-19T15:04:00.326Z,4.33
2023-05-19T15:06:48.209Z,8.43
2023-05-19T15:09:37.931Z,3.90
2023-05-19T15:12:23.240Z,5.63
2023-05-19T15:15:09.652Z,5.50
2023-05-19T15:17:55.437Z,6.87
2023-05-19T15:20:40.632Z,6.43
2023-05-19T15:23:25.950Z,6.70
2023-05-19T15:26:11.057Z,8.33
2023-05-19T15:28:56.424Z,10.37
2023-05-19T15:31:41.886Z,4.13
2023-05-19T15:34:27.377Z,5.17
2023-05-19T15:37:12.753Z,5.30
2023-05-19T15:39:58.265Z,5.73
2023-05-19T15:42:43.906Z,4.03
2023-05-19T15:45:29.035Z,5.60
2023-05-19T15:48:14.534Z,5.87
2023-05-19T15:51:00.051Z,4.83
2023-05-19T15:53:45.313Z,7.57
2023-05-19T15:56:30.655Z,10.30
2023-05-19T15:59:15.901Z,7.17
2023-05-19T16:02:01.497Z,6.53
2023-05-19T16:04:46.725Z,6.67
2023-05-19T16:07:31.925Z,9.33
2023-05-19T16:10:17.255Z,8.07
2023-05-19T16:13:02.579Z,7.67
2023-05-19T16:15:48.670Z,5.27
2023-05-19T16:18:34.168Z,5.70
2023-05-19T16:21:19.537Z,4.80
2023-05-19T16:24:06.429Z,8.00
2023-05-19T16:26:53.607Z,6.17
2023-05-19T16:29:39.363Z,7.10
2023-05-19T16:32:25.214Z,9.50
2023-05-19T16:35:11.392Z,5.37
2023-05-19T16:37:57.450Z,6.53
2023-05-19T16:40:45.642Z,5.27
2023-05-19T16:43:33.689Z,3.97
2023-05-19T16:46:21.693Z,4.67
2023-05-19T16:49:07.595Z,4.93
2023-05-19T16:51:54.182Z,6.20
2023-05-19T16:54:40.809Z,5.60
2023-05-19T16:57:26.767Z,5.77
2023-05-19T17:00:13.090Z,5.20
2023-05-19T17:02:58.329Z,10.33
2023-05-19T17:05:45.594Z,5.87
2023-05-19T17:08:33.189Z,6.30
2023-05-19T17:11:19.384Z,6.73
2023-05-19T17:14:09.701Z,8.50
2023-05-19T17:16:55.987Z,11.27
2023-05-19T17:19:41.879Z,16.17
2023-05-19T17:22:29.489Z,12.23
2023-05-19T17:25:15.815Z,17.53
2023-05-19T17:28:01.550Z,9.73
2023-05-19T17:30:47.375Z,7.67
2023-05-19T17:33:33.329Z,6.87
2023-05-19T17:36:19.282Z,7.57
2023-05-19T17:39:05.433Z,11.20
2023-05-19T17:41:52.607Z,14.37
2023-05-19T17:44:38.200Z,10.90
2023-05-19T17:47:23.958Z,11.83
2023-05-19T17:50:09.578Z,17.80
2023-05-19T17:52:56.244Z,14.27
2023-05-19T17:55:44.164Z,8.73
2023-05-19T17:58:29.781Z,13.97
2023-05-19T18:01:17.082Z,11.90
2023-05-19T18:04:03.800Z,8.60
2023-05-19T18:06:52.084Z,12.43
2023-05-19T18:09:38.420Z,12.70
2023-05-19T18:12:23.626Z,12.27
2023-05-19T18:15:09.081Z,8.87
2023-05-19T18:17:54.717Z,11.73
2023-05-19T18:20:41.190Z,8.70
2023-05-19T18:23:26.828Z,10.93
2023-05-19T18:26:15.678Z,9.77
2023-05-19T18:29:04.821Z,8.43
2023-05-19T18:31:50.287Z,11.23
2023-05-19T18:34:35.646Z,9.23
2023-05-19T18:37:20.933Z,12.73
2023-05-19T18:40:07.585Z,10.20
2023-05-19T18:42:53.061Z,9.20
2023-05-19T18:45:38.481Z,11.97
2023-05-19T18:48:25.684Z,9.07
2023-05-19T18:51:11.350Z,12.43
2023-05-19T18:53:56.781Z,10.63
2023-05-19T18:56:42.398Z,11.27
2023-05-19T18:59:27.893Z,12.03
2023-05-19T19:02:13.189Z,9.03
2023-05-19T19:04:58.823Z,13.17
2023-05-19T19:07:44.776Z,9.33
2023-05-19T19:10:33.268Z,10.33
2023-05-19T19:13:19.121Z,11.60
2023-05-19T19:16:04.560Z,11.57
2023-05-19T19:18:50.116Z,7.67
2023-05-19T19:21:35.729Z,9.27
2023-05-19T19:24:21.420Z,9.57
2023-05-19T19:27:06.931Z,10.73
2023-05-19T19:29:52.242Z,8.03
2023-05-19T19:32:37.799Z,7.43
2023-05-19T19:35:23.109Z,9.30
2023-05-19T19:38:08.706Z,8.97
2023-05-19T19:40:54.100Z,9.87
2023-05-19T19:43:39.170Z,8.73
2023-05-19T19:46:24.437Z,10.07
2023-05-19T19:49:09.755Z,7.73
2023-05-19T19:51:55.080Z,9.60
2023-05-19T19:54:40.211Z,9.03
2023-05-19T19:57:26.902Z,10.53
2023-05-19T20:00:12.996Z,9.07
2023-05-19T20:05:46.678Z,12.10
2023-05-19T20:08:31.849Z,6.73
2023-05-19T20:11:17.228Z,6.97
2023-05-19T20:14:02.932Z,8.17
2023-05-19T20:16:48.140Z,6.53
2023-05-19T20:19:33.705Z,7.03
2023-05-19T20:22:19.466Z,6.50
2023-05-19T20:25:05.040Z,7.37
2023-05-19T20:27:50.615Z,8.17
2023-05-19T20:30:35.949Z,7.03
2023-05-19T20:33:21.298Z,10.33
2023-05-19T20:36:07.328Z,7.17
2023-05-19T20:38:53.053Z,5.53
2023-05-19T20:41:38.622Z,7.13
2023-05-19T20:44:23.826Z,9.67
2023-05-19T20:47:09.002Z,6.93
2023-05-19T20:49:54.264Z,9.53
2023-05-19T20:52:39.541Z,8.07
2023-05-19T20:55:50.694Z,8.40
2023-05-19T20:58:37.104Z,6.67
2023-05-19T21:01:22.803Z,6.60
2023-05-19T21:04:08.282Z,6.93
2023-05-19T21:06:53.624Z,6.27
2023-05-19T21:09:38.979Z,6.13
2023-05-19T21:12:25.291Z,6.53
2023-05-19T21:15:11.122Z,6.30
2023-05-19T21:17:56.416Z,8.80
2023-05-19T21:20:41.667Z,8.97
2023-05-19T21:23:26.792Z,6.73
2023-05-19T21:26:12.042Z,7.50
2023-05-19T21:28:57.365Z,7.33
2023-05-19T21:31:42.572Z,7.23
2023-05-19T21:34:27.881Z,6.90
2023-05-19T21:37:13.219Z,6.53
2023-05-19T21:39:58.563Z,7.43
2023-05-19T21:42:43.738Z,10.77
2023-05-19T21:45:29.204Z,6.97
2023-05-19T21:48:14.492Z,8.97
2023-05-19T21:50:59.641Z,7.13
2023-05-19T21:53:45.274Z,7.60
2023-05-19T21:56:30.681Z,8.40
2023-05-19T21:59:15.798Z,6.63
2023-05-19T22:02:00.959Z,7.40
2023-05-19T22:04:46.353Z,7.03
2023-05-19T22:07:31.675Z,8.10
2023-05-19T22:10:17.413Z,7.57
2023-05-19T22:13:02.968Z,7.03
2023-05-19T22:15:48.197Z,6.10
2023-05-19T22:18:33.907Z,6.73
2023-05-19T22:21:19.340Z,6.17
2023-05-19T22:24:04.641Z,6.73
2023-05-19T22:26:49.983Z,5.30
2023-05-19T22:29:38.433Z,7.73
2023-05-19T22:32:24.196Z,8.67
2023-05-19T22:35:10.871Z,7.90
2023-05-19T22:37:56.094Z,6.63
2023-05-19T22:40:41.554Z,6.87
2023-05-19T22:43:26.791Z,6.87
2023-05-19T22:46:12.099Z,7.53
2023-05-19T22:48:57.405Z,6.27
2023-05-19T22:51:42.515Z,6.53
2023-05-19T22:54:27.874Z,6.33
2023-05-19T22:57:13.134Z,7.67
2023-05-19T22:59:58.320Z,6.63
2023-05-19T23:02:43.537Z,6.40
2023-05-19T23:05:28.795Z,7.70
2023-05-19T23:08:14.032Z,7.67
2023-05-19T23:11:00.898Z,8.17
2023-05-19T23:13:46.068Z,6.77
2023-05-19T23:16:31.298Z,7.97
2023-05-19T23:19:17.134Z,7.43
2023-05-19T23:22:02.770Z,6.33
2023-05-19T23:24:48.043Z,7.27
2023-05-19T23:27:36.658Z,7.90
2023-05-19T23:30:22.096Z,7.40
2023-05-19T23:33:07.300Z,6.90
2023-05-19T23:35:52.543Z,8.10
2023-05-19T23:38:37.863Z,7.07
2023-05-19T23:41:23.037Z,6.77
2023-05-19T23:44:08.571Z,7.97
2023-05-19T23:46:54.049Z,6.97
2023-05-19T23:49:39.311Z,6.90
2023-05-19T23:52:24.639Z,7.53
2023-05-19T23:55:12.662Z,6.83
2023-05-19T23:57:58.082Z,7.57
